createdAt,value
2023-05-16T00:01:22.045Z,99.90
2023-05-16T00:03:48.907Z,99.90
2023-05-16T00:06:15.762Z,99.90
2023-05-16T00:08:42.341Z,99.90
2023-05-16T00:11:08.968Z,99.90
2023-05-16T00:13:35.648Z,99.90
2023-05-16T00:16:02.570Z,99.90
2023-05-16T00:18:29.309Z,99.90
2023-05-16T00:20:56.495Z,99.90
2023-05-16T00:23:23.125Z,99.90
2023-05-16T00:25:49.746Z,99.90
2023-05-16T00:28:16.625Z,99.90
2023-05-16T00:30:43.227Z,99.90
2023-05-16T00:33:09.907Z,99.90
2023-05-16T00:35:36.594Z,99.90
2023-05-16T00:38:03.274Z,99.90
2023-05-16T00:40:29.870Z,99.90
2023-05-16T00:42:56.522Z,99.90
2023-05-16T00:45:23.209Z,99.90
2023-05-16T00:47:51.436Z,99.90
2023-05-16T00:50:18.964Z,99.90
2023-05-16T00:52:45.858Z,99.90
2023-05-16T00:55:14.428Z,99.90
2023-05-16T00:57:41.154Z,99.90
2023-05-16T01:00:10.542Z,99.90
2023-05-16T01:02:37.609Z,99.90
2023-05-16T01:05:11.033Z,99.90
2023-05-16T01:07:37.818Z,99.90
2023-05-16T01:10:07.781Z,99.90
2023-05-16T01:12:59.749Z,99.90
2023-05-16T01:15:30.294Z,99.90
2023-05-16T01:18:14.204Z,99.90
2023-05-16T01:20:48.167Z,99.90
2023-05-16T01:23:31.381Z,99.90
2023-05-16T01:26:22.226Z,99.90
2023-05-16T01:28:50.752Z,99.90
2023-05-16T01:31:19.327Z,99.90
2023-05-16T01:33:46.115Z,99.90
2023-05-16T01:36:31.326Z,99.90
2023-05-16T01:39:03.919Z,99.90
2023-05-16T01:41:47.560Z,99.90
2023-05-16T01:44:23.549Z,99.90
2023-05-16T01:46:55.203Z,99.90
2023-05-16T01:49:40.738Z,99.90
2023-05-16T01:52:22.774Z,99.90
2023-05-16T01:54:55.998Z,99.90
2023-05-16T01:57:26.224Z,99.90
2023-05-16T01:59:53.427Z,99.90
2023-05-16T02:02:20.787Z,99.90
2023-05-16T02:04:47.417Z,99.90
2023-05-16T02:07:15.706Z,99.90
2023-05-16T02:09:44.981Z,99.90
2023-05-16T02:12:11.614Z,99.90
2023-05-16T02:14:38.271Z,99.90
2023-05-16T02:17:06.428Z,99.90
2023-05-16T02:19:33.142Z,99.90
2023-05-16T02:22:00.619Z,99.90
2023-05-16T02:24:27.286Z,99.90
2023-05-16T02:26:55.649Z,99.90
2023-05-16T02:29:22.265Z,99.90
2023-05-16T02:31:49.261Z,99.90
2023-05-16T02:34:16.506Z,99.90
2023-05-16T02:36:43.155Z,99.90
2023-05-16T02:39:10.269Z,99.90
2023-05-16T02:41:37.331Z,99.90
2023-05-16T02:44:04.148Z,99.90
2023-05-16T02:46:33.479Z,99.90
2023-05-16T02:49:00.650Z,99.90
2023-05-16T02:51:28.354Z,99.90
2023-05-16T02:53:59.739Z,99.90
2023-05-16T02:56:26.814Z,99.90
2023-05-16T02:58:54.507Z,99.90
2023-05-16T03:01:21.284Z,99.90
2023-05-16T03:03:48.071Z,99.90
2023-05-16T03:06:14.746Z,99.90
2023-05-16T03:08:41.499Z,99.90
2023-05-16T03:11:08.164Z,99.90
2023-05-16T03:13:34.779Z,99.90
2023-05-16T03:16:01.502Z,99.90
2023-05-16T03:18:28.241Z,99.90
2023-05-16T03:20:54.901Z,99.90
2023-05-16T03:23:23.948Z,99.90
2023-05-16T03:25:50.773Z,99.90
2023-05-16T03:28:20.898Z,99.90
2023-05-16T03:30:47.854Z,99.90
2023-05-16T03:33:14.442Z,99.90
2023-05-16T03:35:41.259Z,99.90
2023-05-16T03:38:08.083Z,99.90
2023-05-16T03:40:35.216Z,99.90
2023-05-16T03:43:01.784Z,99.90
2023-05-16T03:45:30.581Z,99.90
2023-05-16T03:47:57.875Z,99.90
2023-05-16T03:50:25.407Z,99.90
2023-05-16T03:52:55.534Z,99.90
2023-05-16T03:55:22.153Z,99.90
2023-05-16T03:57:50.036Z,99.90
2023-05-16T04:00:17.149Z,99.90
2023-05-16T04:02:43.979Z,99.90
2023-05-16T04:05:12.362Z,99.90
2023-05-16T04:07:39.258Z,99.90
2023-05-16T04:10:06.344Z,99.90
2023-05-16T04:12:33.066Z,99.90
2023-05-16T04:14:59.679Z,99.90
2023-05-16T04:17:26.489Z,99.90
2023-05-16T04:19:53.130Z,99.90
2023-05-16T04:22:22.322Z,99.90
2023-05-16T04:24:49.360Z,99.90
2023-05-16T04:27:16.131Z,99.90
2023-05-16T04:29:42.929Z,99.90
2023-05-16T04:32:10.928Z,99.90
2023-05-16T04:34:39.665Z,99.90
2023-05-16T04:37:08.429Z,99.90
2023-05-16T04:39:36.146Z,99.90
2023-05-16T04:42:04.230Z,99.90
2023-05-16T04:44:30.995Z,99.90
2023-05-16T04:46:57.800Z,99.90
2023-05-16T04:49:24.614Z,99.90
2023-05-16T04:51:51.278Z,99.90
2023-05-16T04:54:17.921Z,99.90
2023-05-16T04:56:44.553Z,99.90
2023-05-16T04:59:11.309Z,99.90
2023-05-16T05:01:37.964Z,99.90
2023-05-16T05:04:04.792Z,99.90
2023-05-16T05:06:31.510Z,99.90
2023-05-16T05:08:58.268Z,99.90
2023-05-16T05:11:24.882Z,99.90
2023-05-16T05:13:53.117Z,99.90
2023-05-16T05:16:19.824Z,99.90
2023-05-16T05:18:46.529Z,99.90
2023-05-16T05:21:13.363Z,99.90
2023-05-16T05:23:40.292Z,99.90
2023-05-16T05:26:07.160Z,99.90
2023-05-16T05:28:33.825Z,99.90
2023-05-16T05:31:00.492Z,99.90
2023-05-16T05:33:29.300Z,99.90
2023-05-16T05:35:55.980Z,99.90
2023-05-16T05:38:22.973Z,99.90
2023-05-16T05:40:49.758Z,99.90
2023-05-16T05:43:16.417Z,99.90
2023-05-16T05:45:43.976Z,99.90
2023-05-16T05:48:11.288Z,99.90
2023-05-16T05:50:38.097Z,99.90
2023-05-16T05:53:04.805Z,99.90
2023-05-16T05:55:31.454Z,99.90
2023-05-16T05:57:58.054Z,99.90
2023-05-16T06:00:24.923Z,99.90
2023-05-16T06:02:51.675Z,99.90
2023-05-16T06:05:18.487Z,99.90
2023-05-16T06:07:45.154Z,99.90
2023-05-16T06:10:11.802Z,99.90
2023-05-16T06:12:38.406Z,99.90
2023-05-16T06:15:05.480Z,99.90
2023-05-16T06:17:32.164Z,99.90
2023-05-16T06:19:58.824Z,99.90
2023-05-16T06:22:25.583Z,99.90
2023-05-16T06:24:52.230Z,99.90
2023-05-16T06:27:18.836Z,99.90
2023-05-16T06:29:45.573Z,99.90
2023-05-16T06:32:13.330Z,99.90
2023-05-16T06:34:40.382Z,99.90
2023-05-16T06:37:07.074Z,99.90
2023-05-16T06:39:33.738Z,99.90
2023-05-16T06:42:00.770Z,99.90
2023-05-16T06:44:32.054Z,99.90
2023-05-16T06:46:59.000Z,99.90
2023-05-16T06:49:25.762Z,99.90
2023-05-16T06:51:52.626Z,99.90
2023-05-16T06:54:19.299Z,99.90
2023-05-16T06:56:45.969Z,99.90
2023-05-16T06:59:12.660Z,99.60
2023-05-16T07:01:39.484Z,99.90
2023-05-16T07:04:06.678Z,99.80
2023-05-16T07:06:33.786Z,99.90
2023-05-16T07:09:00.597Z,99.90
2023-05-16T07:11:27.278Z,95.30
2023-05-16T07:13:54.061Z,96.50
2023-05-16T07:16:20.831Z,94.90
2023-05-16T07:18:47.649Z,94.40
2023-05-16T07:21:14.397Z,96.30
2023-05-16T07:23:41.541Z,90.40
2023-05-16T07:26:08.194Z,92.40
2023-05-16T07:28:34.858Z,93.30
2023-05-16T07:31:01.690Z,91.90
2023-05-16T07:33:28.343Z,91.80
2023-05-16T07:36:07.849Z,91.70
2023-05-16T07:38:41.974Z,90.80
2023-05-16T07:41:09.046Z,90.40
2023-05-16T07:43:36.740Z,90.00
2023-05-16T07:46:04.086Z,90.20
2023-05-16T07:48:31.076Z,90.20
2023-05-16T07:50:58.118Z,89.00
2023-05-16T07:53:24.890Z,89.80
2023-05-16T07:55:51.779Z,88.40
2023-05-16T07:58:19.766Z,87.90
2023-05-16T08:00:46.654Z,84.70
2023-05-16T08:03:13.749Z,84.90
2023-05-16T08:05:40.807Z,87.10
2023-05-16T08:08:07.522Z,84.90
2023-05-16T08:10:34.309Z,83.90
2023-05-16T08:13:00.989Z,85.30
2023-05-16T08:15:28.626Z,87.10
2023-05-16T08:17:58.741Z,88.30
2023-05-16T08:20:26.492Z,88.60
2023-05-16T08:22:53.769Z,86.60
2023-05-16T08:25:20.701Z,87.30
2023-05-16T08:27:49.600Z,87.70
2023-05-16T08:30:16.370Z,86.70
2023-05-16T08:32:43.481Z,85.60
2023-05-16T08:35:11.203Z,86.70
2023-05-16T08:37:37.946Z,84.80
2023-05-16T08:40:09.270Z,82.70
2023-05-16T08:42:36.429Z,82.20
2023-05-16T08:45:05.131Z,81.40
2023-05-16T08:47:33.062Z,83.00
2023-05-16T08:50:02.748Z,80.40
2023-05-16T08:52:31.660Z,78.70
2023-05-16T08:55:11.006Z,77.20
2023-05-16T08:57:38.860Z,76.10
2023-05-16T09:00:11.806Z,72.90
2023-05-16T09:02:40.237Z,75.70
2023-05-16T09:05:11.223Z,77.30
2023-05-16T09:07:38.476Z,75.80
2023-05-16T09:10:06.916Z,78.30
2023-05-16T09:12:34.646Z,78.80
2023-05-16T09:15:06.364Z,81.20
2023-05-16T09:17:51.690Z,79.10
2023-05-16T09:20:20.486Z,79.30
2023-05-16T09:22:58.464Z,79.60
2023-05-16T09:25:30.955Z,80.00
2023-05-16T09:28:01.442Z,80.60
2023-05-16T09:30:31.377Z,77.30
2023-05-16T09:32:58.924Z,75.50
2023-05-16T09:37:56.721Z,76.70
2023-05-16T09:40:24.020Z,75.30
2023-05-16T09:43:07.082Z,76.90
2023-05-16T09:45:35.373Z,76.60
2023-05-16T09:48:05.696Z,75.30
2023-05-16T09:50:36.846Z,73.30
2023-05-16T09:53:04.533Z,74.20
2023-05-16T09:55:32.203Z,74.10
2023-05-16T09:57:58.914Z,75.80
2023-05-16T10:00:31.459Z,74.10
2023-05-16T10:03:01.415Z,74.80
2023-05-16T10:05:31.159Z,75.00
2023-05-16T10:07:58.766Z,75.40
2023-05-16T10:10:26.786Z,75.20
2023-05-16T10:12:56.383Z,74.50
2023-05-16T10:15:23.199Z,75.10
2023-05-16T10:17:53.055Z,75.10
2023-05-16T10:20:22.021Z,75.40
2023-05-16T10:22:52.535Z,74.20
2023-05-16T10:25:36.553Z,75.70
2023-05-16T10:28:04.129Z,74.30
2023-05-16T10:30:33.644Z,76.10
2023-05-16T10:33:01.925Z,76.50
2023-05-16T10:35:28.891Z,74.00
2023-05-16T10:37:56.608Z,73.50
2023-05-16T10:40:24.282Z,74.30
2023-05-16T10:43:05.416Z,75.30
2023-05-16T10:45:32.646Z,76.80
2023-05-16T10:48:04.489Z,76.10
2023-05-16T10:50:49.651Z,74.60
2023-05-16T10:53:20.975Z,76.90
2023-05-16T10:55:51.251Z,75.50
2023-05-16T10:58:26.101Z,73.30
2023-05-16T11:01:16.054Z,73.70
2023-05-16T11:03:58.631Z,74.20
2023-05-16T11:06:27.758Z,73.90
2023-05-16T11:09:10.505Z,72.80
2023-05-16T11:11:58.411Z,71.20
2023-05-16T11:14:29.016Z,70.50
2023-05-16T11:17:11.036Z,71.30
2023-05-16T11:19:52.030Z,72.40
2023-05-16T11:22:40.951Z,71.10
2023-05-16T11:25:13.234Z,72.90
2023-05-16T11:27:47.814Z,72.00
2023-05-16T11:30:17.568Z,73.30
2023-05-16T11:32:46.138Z,71.40
2023-05-16T11:35:15.774Z,72.20
2023-05-16T11:37:44.056Z,72.80
2023-05-16T11:40:12.451Z,73.60
2023-05-16T11:42:46.196Z,74.30
2023-05-16T11:45:16.529Z,73.50
2023-05-16T11:47:44.859Z,73.00
2023-05-16T11:50:16.241Z,74.10
2023-05-16T11:52:45.799Z,74.30
2023-05-16T11:55:14.487Z,76.30
2023-05-16T11:57:44.211Z,75.30
2023-05-16T12:00:16.635Z,74.30
2023-05-16T12:02:45.019Z,73.90
2023-05-16T12:05:11.970Z,73.40
2023-05-16T12:07:38.812Z,74.60
2023-05-16T12:10:10.990Z,73.80
2023-05-16T12:12:40.316Z,73.90
2023-05-16T12:15:08.844Z,74.00
2023-05-16T12:17:40.424Z,74.40
2023-05-16T12:20:14.264Z,73.80
2023-05-16T12:22:44.452Z,73.40
2023-05-16T12:25:31.949Z,73.90
2023-05-16T12:28:01.071Z,75.10
2023-05-16T12:30:30.219Z,75.20
2023-05-16T12:32:58.563Z,74.60
2023-05-16T12:35:33.198Z,75.20
2023-05-16T12:38:01.055Z,75.40
2023-05-16T12:40:31.326Z,76.20
2023-05-16T12:42:58.220Z,75.10
2023-05-16T12:45:27.213Z,73.40
2023-05-16T12:47:54.251Z,73.30
2023-05-16T12:50:22.070Z,71.70
2023-05-16T12:52:54.659Z,71.90
2023-05-16T12:55:22.871Z,73.10
2023-05-16T12:57:50.499Z,75.10
2023-05-16T13:00:19.395Z,75.80
2023-05-16T13:02:47.379Z,75.60
2023-05-16T13:05:14.617Z,75.20
2023-05-16T13:07:41.971Z,75.70
2023-05-16T13:10:10.646Z,76.10
2023-05-16T13:12:40.981Z,76.70
2023-05-16T13:15:09.464Z,75.70
2023-05-16T13:17:37.303Z,77.70
2023-05-16T13:20:08.724Z,76.60
2023-05-16T13:22:38.674Z,75.90
2023-05-16T13:25:06.125Z,74.90
2023-05-16T13:27:33.969Z,75.50
2023-05-16T13:30:01.248Z,75.10
2023-05-16T13:32:28.081Z,77.40
2023-05-16T13:34:54.982Z,75.80
2023-05-16T13:37:24.224Z,73.40
2023-05-16T13:39:50.978Z,74.60
2023-05-16T13:42:17.624Z,74.40
2023-05-16T13:44:44.841Z,70.70
2023-05-16T13:47:11.762Z,72.80
2023-05-16T13:49:38.846Z,70.40
2023-05-16T13:52:06.383Z,70.00
2023-05-16T13:54:33.547Z,70.30
2023-05-16T13:57:01.537Z,69.00
2023-05-16T13:59:48.786Z,69.80
2023-05-16T14:02:15.083Z,70.30
2023-05-16T14:04:41.854Z,70.20
2023-05-16T14:07:08.491Z,70.90
2023-05-16T14:09:38.941Z,70.90
2023-05-16T14:12:07.242Z,71.70
2023-05-16T14:14:37.205Z,72.40
2023-05-16T14:17:04.221Z,72.30
2023-05-16T14:19:31.412Z,72.70
2023-05-16T14:21:58.405Z,74.20
2023-05-16T14:24:25.209Z,71.40
2023-05-16T14:26:57.561Z,72.50
2023-05-16T14:29:25.235Z,70.50
2023-05-16T14:31:52.117Z,70.50
2023-05-16T14:34:18.818Z,70.20
2023-05-16T14:36:45.678Z,69.40
2023-05-16T14:39:12.392Z,69.80
2023-05-16T14:41:39.101Z,68.70
2023-05-16T14:44:05.897Z,69.60
2023-05-16T14:46:33.757Z,69.90
2023-05-16T14:49:00.601Z,69.90
2023-05-16T14:51:27.275Z,68.10
2023-05-16T14:53:54.124Z,68.20
2023-05-16T14:56:21.827Z,69.20
2023-05-16T14:58:48.541Z,68.80
2023-05-16T15:01:16.491Z,69.10
2023-05-16T15:03:54.670Z,69.40
2023-05-16T15:06:23.597Z,68.30
2023-05-16T15:08:50.652Z,70.20
2023-05-16T15:11:17.380Z,69.30
2023-05-16T15:13:44.053Z,70.40
2023-05-16T15:16:12.085Z,70.00
2023-05-16T15:18:38.910Z,69.60
2023-05-16T15:21:05.839Z,69.30
2023-05-16T15:23:32.993Z,70.20
2023-05-16T15:25:59.666Z,73.80
2023-05-16T15:28:26.337Z,69.90
2023-05-16T15:30:53.007Z,70.10
2023-05-16T15:33:19.708Z,71.00
2023-05-16T15:35:46.420Z,72.20
2023-05-16T15:38:13.200Z,72.40
2023-05-16T15:40:39.968Z,73.00
2023-05-16T15:43:07.026Z,72.10
2023-05-16T15:45:33.878Z,71.90
2023-05-16T15:48:02.095Z,72.70
2023-05-16T15:50:28.848Z,73.10
2023-05-16T15:52:58.105Z,73.60
2023-05-16T15:55:24.826Z,73.90
2023-05-16T15:57:51.634Z,72.70
2023-05-16T16:00:18.492Z,73.30
2023-05-16T16:02:46.048Z,73.60
2023-05-16T16:05:13.006Z,73.70
2023-05-16T16:07:40.071Z,73.10
2023-05-16T16:10:07.396Z,73.20
2023-05-16T16:12:34.167Z,73.70
2023-05-16T16:15:02.176Z,74.10
2023-05-16T16:17:29.042Z,74.60
2023-05-16T16:19:55.743Z,75.00
2023-05-16T16:22:22.736Z,76.00
2023-05-16T16:24:49.490Z,76.10
2023-05-16T16:27:16.521Z,77.50
2023-05-16T16:29:43.198Z,77.30
2023-05-16T16:32:09.988Z,77.10
2023-05-16T16:34:36.655Z,77.60
2023-05-16T16:37:03.899Z,77.90
2023-05-16T16:39:32.220Z,77.90
2023-05-16T16:41:59.885Z,77.40
2023-05-16T16:44:26.569Z,77.50
2023-05-16T16:46:53.339Z,77.90
2023-05-16T16:49:20.138Z,78.40
2023-05-16T16:51:47.555Z,78.30
2023-05-16T16:54:14.261Z,78.90
2023-05-16T16:56:41.067Z,77.60
2023-05-16T16:59:07.891Z,78.50
2023-05-16T17:01:35.172Z,77.70
2023-05-16T17:04:02.094Z,77.90
2023-05-16T17:06:29.853Z,78.30
2023-05-16T17:08:56.817Z,79.00
2023-05-16T17:11:23.599Z,79.00
2023-05-16T17:13:50.415Z,78.90
2023-05-16T17:16:17.089Z,79.40
2023-05-16T17:18:43.836Z,79.30
2023-05-16T17:21:12.734Z,79.30
2023-05-16T17:23:41.137Z,79.70
2023-05-16T17:26:09.660Z,80.20
2023-05-16T17:28:36.317Z,80.40
2023-05-16T17:31:03.957Z,81.00
2023-05-16T17:33:31.119Z,80.80
2023-05-16T17:35:57.924Z,80.70
2023-05-16T17:38:24.625Z,81.20
2023-05-16T17:40:51.288Z,80.90
2023-05-16T17:43:17.998Z,81.50
2023-05-16T17:45:44.695Z,81.60
2023-05-16T17:48:11.436Z,81.40
2023-05-16T17:50:38.255Z,81.00
2023-05-16T17:53:05.029Z,81.90
2023-05-16T17:55:33.555Z,81.80
2023-05-16T17:58:00.525Z,82.00
2023-05-16T18:00:27.252Z,82.60
2023-05-16T18:02:54.247Z,82.70
2023-05-16T18:05:21.211Z,83.30
2023-05-16T18:07:47.924Z,83.50
2023-05-16T18:10:14.647Z,83.30
2023-05-16T18:12:42.356Z,83.50
2023-05-16T18:15:10.573Z,83.80
2023-05-16T18:17:37.735Z,84.20
2023-05-16T18:20:10.214Z,84.00
2023-05-16T18:22:41.180Z,84.00
2023-05-16T18:25:09.849Z,84.00
2023-05-16T18:27:37.651Z,83.80
2023-05-16T18:30:06.042Z,84.60
2023-05-16T18:32:33.069Z,84.50
2023-05-16T18:34:59.853Z,85.20
2023-05-16T18:37:26.684Z,85.70
2023-05-16T18:39:53.435Z,85.50
2023-05-16T18:42:20.342Z,86.00
2023-05-16T18:44:47.112Z,86.30
2023-05-16T18:47:15.682Z,86.20
2023-05-16T18:49:43.347Z,86.20
2023-05-16T18:52:11.209Z,86.60
2023-05-16T18:54:38.781Z,87.00
2023-05-16T18:57:06.929Z,87.50
2023-05-16T18:59:34.767Z,87.10
2023-05-16T19:02:01.791Z,86.80
2023-05-16T19:04:28.656Z,87.10
2023-05-16T19:06:57.799Z,87.40
2023-05-16T19:09:25.068Z,87.50
2023-05-16T19:11:51.744Z,88.30
2023-05-16T19:14:18.487Z,88.20
2023-05-16T19:16:45.303Z,88.70
2023-05-16T19:19:12.071Z,88.80
2023-05-16T19:21:39.020Z,88.70
2023-05-16T19:24:06.114Z,88.80
2023-05-16T19:26:32.844Z,88.80
2023-05-16T19:29:00.189Z,88.60
2023-05-16T19:31:26.916Z,88.90
2023-05-16T19:33:53.692Z,89.10
2023-05-16T19:36:21.051Z,89.00
2023-05-16T19:38:47.782Z,89.20
2023-05-16T19:41:14.461Z,89.60
2023-05-16T19:43:41.133Z,89.70
2023-05-16T19:46:07.806Z,90.00
2023-05-16T19:48:35.300Z,90.10
2023-05-16T19:51:02.338Z,89.50
2023-05-16T19:53:28.988Z,90.20
2023-05-16T19:55:55.675Z,89.50
2023-05-16T19:58:22.461Z,90.00
2023-05-16T20:00:50.781Z,89.80
2023-05-16T20:03:17.652Z,90.30
2023-05-16T20:05:44.590Z,90.50
2023-05-16T20:08:11.985Z,90.10
2023-05-16T20:10:39.819Z,90.50
2023-05-16T20:13:06.495Z,90.60
2023-05-16T20:15:33.150Z,90.50
2023-05-16T20:17:59.799Z,90.80
2023-05-16T20:20:26.864Z,90.80
2023-05-16T20:22:53.576Z,90.90
2023-05-16T20:25:20.220Z,90.80
2023-05-16T20:27:46.970Z,91.10
2023-05-16T20:30:14.272Z,91.50
2023-05-16T20:32:41.060Z,92.00
2023-05-16T20:35:10.045Z,91.20
2023-05-16T20:37:37.453Z,91.30
2023-05-16T20:40:05.946Z,91.30
2023-05-16T20:42:32.618Z,91.60
2023-05-16T20:44:59.369Z,90.80
2023-05-16T20:47:26.168Z,91.20
2023-05-16T20:49:52.837Z,91.30
2023-05-16T20:52:21.916Z,90.80
2023-05-16T20:54:51.905Z,91.10
2023-05-16T20:57:18.714Z,90.90
2023-05-16T20:59:45.420Z,91.10
2023-05-16T21:02:12.152Z,91.20
2023-05-16T21:04:38.950Z,91.10
2023-05-16T21:07:08.137Z,91.60
2023-05-16T21:09:36.934Z,91.30
2023-05-16T21:12:04.233Z,91.20
2023-05-16T21:14:30.887Z,91.70
2023-05-16T21:16:57.563Z,91.80
2023-05-16T21:19:24.355Z,92.10
2023-05-16T21:21:51.050Z,92.10
2023-05-16T21:24:17.754Z,92.20
2023-05-16T21:26:44.412Z,92.60
2023-05-16T21:29:11.054Z,92.50
2023-05-16T21:31:37.770Z,92.30
2023-05-16T21:34:04.598Z,92.40
2023-05-16T21:36:31.429Z,92.90
2023-05-16T21:38:58.078Z,92.80
2023-05-16T21:41:24.742Z,93.20
2023-05-16T21:43:51.425Z,93.50
2023-05-16T21:46:18.110Z,93.00
2023-05-16T21:48:44.880Z,93.80
2023-05-16T21:51:11.663Z,93.80
2023-05-16T21:53:38.328Z,93.80
2023-05-16T21:56:06.146Z,94.00
2023-05-16T21:58:32.849Z,94.20
2023-05-16T22:00:59.600Z,94.70
2023-05-16T22:03:26.401Z,94.60
2023-05-16T22:05:53.142Z,94.50
2023-05-16T22:08:19.778Z,94.30
2023-05-16T22:10:46.652Z,94.70
2023-05-16T22:13:13.358Z,94.80
2023-05-16T22:15:42.399Z,94.90
2023-05-16T22:18:11.301Z,95.10
2023-05-16T22:20:37.992Z,95.50
2023-05-16T22:23:04.689Z,95.90
2023-05-16T22:25:31.338Z,96.00
2023-05-16T22:27:58.075Z,96.00
2023-05-16T22:30:24.756Z,96.40
2023-05-16T22:32:51.531Z,96.20
2023-05-16T22:35:18.286Z,96.50
2023-05-16T22:37:45.013Z,96.40
2023-05-16T22:40:11.849Z,96.50
2023-05-16T22:42:38.628Z,96.90
2023-05-16T22:45:05.860Z,96.90
2023-05-16T22:47:32.620Z,97.30
2023-05-16T22:49:59.634Z,97.40
2023-05-16T22:52:26.416Z,97.50
2023-05-16T22:54:53.052Z,97.70
2023-05-16T22:57:19.782Z,97.80
2023-05-16T22:59:46.684Z,97.90
2023-05-16T23:02:13.390Z,98.10
2023-05-16T23:04:40.042Z,98.40
2023-05-16T23:07:06.731Z,98.70
2023-05-16T23:09:33.397Z,98.90
2023-05-16T23:12:01.552Z,98.70
2023-05-16T23:14:28.344Z,98.50
2023-05-16T23:16:55.061Z,98.60
2023-05-16T23:19:21.808Z,98.80
2023-05-16T23:21:48.853Z,98.80
2023-05-16T23:24:15.666Z,99.10
2023-05-16T23:26:42.444Z,98.80
2023-05-16T23:29:09.121Z,99.20
2023-05-16T23:31:36.120Z,99.20
2023-05-16T23:34:03.186Z,99.10
2023-05-16T23:36:30.021Z,99.30
2023-05-16T23:38:56.727Z,99.30
2023-05-16T23:41:23.468Z,99.20
2023-05-16T23:43:50.157Z,99.90
2023-05-16T23:46:16.811Z,99.90
2023-05-16T23:48:43.666Z,99.90
2023-05-16T23:51:10.401Z,99.90
2023-05-16T23:53:37.055Z,99.90
2023-05-16T23:56:03.866Z,99.90
2023-05-16T23:58:30.532Z,99.90
